createdAt,value
2018-07-16T00:00:32.505Z,18.70
2018-07-16T00:03:00.983Z,18.60
2018-07-16T00:05:29.443Z,18.50
2018-07-16T00:10:26.020Z,18.60
2018-07-16T00:12:54.515Z,18.50
2018-07-16T00:15:22.955Z,18.60
2018-07-16T00:20:19.567Z,18.60
2018-07-16T00:22:48.072Z,18.60
2018-07-16T00:25:16.519Z,18.70
2018-07-16T00:27:44.987Z,18.70
2018-07-16T00:30:13.455Z,18.70
2018-07-16T00:32:41.907Z,18.60
2018-07-16T00:35:10.340Z,18.50
2018-07-16T00:37:38.817Z,18.40
2018-07-16T00:40:07.332Z,18.40
2018-07-16T00:42:35.800Z,18.50
2018-07-16T00:45:04.337Z,18.40
2018-07-16T00:47:32.824Z,18.50
2018-07-16T00:50:01.260Z,18.40
2018-07-16T00:52:29.724Z,18.30
2018-07-16T00:54:58.199Z,18.40
2018-07-16T00:57:26.677Z,18.50
2018-07-16T00:59:55.133Z,18.70
2018-07-16T01:02:23.583Z,18.60
2018-07-16T01:04:52.015Z,18.60
2018-07-16T01:07:20.486Z,18.50
2018-07-16T01:09:48.953Z,18.60
2018-07-16T01:12:17.433Z,18.50
2018-07-16T01:14:45.871Z,18.40
2018-07-16T01:17:14.340Z,18.50
2018-07-16T01:19:42.800Z,18.50
2018-07-16T01:22:11.277Z,18.50
2018-07-16T01:24:39.708Z,18.40
2018-07-16T01:27:08.180Z,18.40
2018-07-16T01:29:36.624Z,18.40
2018-07-16T01:32:05.148Z,18.40
2018-07-16T01:34:33.612Z,18.40
2018-07-16T01:37:02.047Z,18.40
2018-07-16T01:39:30.508Z,18.40
2018-07-16T01:44:27.103Z,18.40
2018-07-16T01:46:55.533Z,18.30
2018-07-16T01:49:23.992Z,18.30
2018-07-16T01:54:20.616Z,18.10
2018-07-16T01:56:49.071Z,18.00
2018-07-16T01:59:17.547Z,17.80
2018-07-16T02:01:46.039Z,17.70
2018-07-16T02:04:14.517Z,17.50
2018-07-16T02:06:42.977Z,17.40
2018-07-16T02:09:11.453Z,17.30
2018-07-16T02:11:39.916Z,17.30
2018-07-16T02:14:08.378Z,17.30
2018-07-16T02:16:36.828Z,17.30
2018-07-16T02:19:05.300Z,17.20
2018-07-16T02:21:33.765Z,17.20
2018-07-16T02:24:02.243Z,17.10
2018-07-16T02:26:30.679Z,17.00
2018-07-16T02:28:59.132Z,17.00
2018-07-16T02:31:27.635Z,17.00
2018-07-16T02:33:56.091Z,17.00
2018-07-16T02:36:24.545Z,17.00
2018-07-16T02:38:53.009Z,17.00
2018-07-16T02:41:21.453Z,17.00
2018-07-16T02:43:49.920Z,17.00
2018-07-16T02:46:18.420Z,17.00
2018-07-16T02:48:46.887Z,17.10
2018-07-16T02:51:15.342Z,17.10
2018-07-16T02:53:43.801Z,17.00
2018-07-16T02:56:12.267Z,17.00
2018-07-16T02:58:40.761Z,17.10
2018-07-16T03:01:09.225Z,17.10
2018-07-16T03:03:37.668Z,17.00
2018-07-16T03:06:06.107Z,17.10
2018-07-16T03:08:34.575Z,17.20
2018-07-16T03:11:03.071Z,17.10
2018-07-16T03:13:31.512Z,17.10
2018-07-16T03:15:59.964Z,17.30
2018-07-16T03:20:56.559Z,17.40
2018-07-16T03:23:25.002Z,17.30
2018-07-16T03:25:53.469Z,17.40
2018-07-16T03:28:21.934Z,17.50
2018-07-16T03:30:50.396Z,17.50
2018-07-16T03:33:18.849Z,17.50
2018-07-16T03:35:47.295Z,17.50
2018-07-16T03:38:15.739Z,17.40
2018-07-16T03:40:44.191Z,17.40
2018-07-16T03:43:12.619Z,17.50
2018-07-16T03:45:41.096Z,17.40
2018-07-16T03:48:09.617Z,17.40
2018-07-16T03:50:38.012Z,17.40
2018-07-16T03:53:06.515Z,17.40
2018-07-16T03:55:34.971Z,17.40
2018-07-16T03:58:03.436Z,17.40
2018-07-16T04:03:00.101Z,17.30
2018-07-16T04:05:28.576Z,17.30
2018-07-16T04:07:57.044Z,17.30
2018-07-16T04:10:25.515Z,17.20
2018-07-16T04:12:53.984Z,17.20
2018-07-16T04:15:22.460Z,17.20
2018-07-16T04:17:50.912Z,17.20
2018-07-16T04:20:19.383Z,17.20
2018-07-16T04:22:47.859Z,17.20
2018-07-16T04:25:16.350Z,17.30
2018-07-16T04:27:44.808Z,17.30
2018-07-16T04:32:41.449Z,17.40
2018-07-16T04:35:09.903Z,17.40
2018-07-16T04:37:38.376Z,17.40
2018-07-16T04:40:06.823Z,17.40
2018-07-16T04:42:35.289Z,17.40
2018-07-16T04:45:03.777Z,17.50
2018-07-16T04:47:32.252Z,17.40
2018-07-16T04:52:28.848Z,17.50
2018-07-16T04:54:57.308Z,17.60
2018-07-16T04:57:25.815Z,17.60
2018-07-16T04:59:54.263Z,17.70
2018-07-16T05:02:22.720Z,17.80
2018-07-16T05:07:19.316Z,17.90
2018-07-16T05:09:47.762Z,18.10
2018-07-16T05:14:44.343Z,18.60
2018-07-16T05:17:12.825Z,18.40
2018-07-16T05:19:41.571Z,18.30
2018-07-16T05:22:10.061Z,18.10
2018-07-16T05:24:38.542Z,18.20
2018-07-16T05:27:07.436Z,18.10
2018-07-16T05:32:04.116Z,18.10
2018-07-16T05:34:32.576Z,18.00
2018-07-16T05:39:29.470Z,18.10
2018-07-16T05:41:57.988Z,18.10
2018-07-16T05:44:26.409Z,18.00
2018-07-16T05:46:54.923Z,18.00
2018-07-16T05:49:23.418Z,18.10
2018-07-16T05:51:51.921Z,18.10
2018-07-16T05:54:20.383Z,18.10
2018-07-16T05:56:48.884Z,18.10
2018-07-16T05:59:17.384Z,18.10
2018-07-16T06:01:45.836Z,18.20
2018-07-16T06:04:14.313Z,18.20
2018-07-16T06:06:42.782Z,18.20
2018-07-16T06:09:11.269Z,18.30
2018-07-16T06:11:39.735Z,18.30
2018-07-16T06:14:08.191Z,18.30
2018-07-16T06:16:36.653Z,18.40
2018-07-16T06:19:05.233Z,18.50
2018-07-16T06:21:33.691Z,18.50
2018-07-16T06:24:02.204Z,18.50
2018-07-16T06:26:30.672Z,18.50
2018-07-16T06:28:59.172Z,18.50
2018-07-16T06:33:55.785Z,18.60
2018-07-16T06:36:24.265Z,18.50
2018-07-16T06:38:52.741Z,18.60
2018-07-16T06:41:21.514Z,18.60
2018-07-16T06:43:49.684Z,18.60
2018-07-16T06:46:18.147Z,18.60
2018-07-16T06:48:46.613Z,18.70
2018-07-16T06:53:43.227Z,18.60
2018-07-16T06:56:11.788Z,18.60
2018-07-16T06:58:40.339Z,18.80
2018-07-16T07:01:08.836Z,18.80
2018-07-16T07:03:37.288Z,18.80
2018-07-16T07:06:05.787Z,18.80
2018-07-16T07:08:34.295Z,18.90
2018-07-16T07:11:02.904Z,18.80
2018-07-16T07:13:31.372Z,18.80
2018-07-16T07:15:59.894Z,18.90
2018-07-16T07:18:28.384Z,18.90
2018-07-16T07:23:25.252Z,18.90
2018-07-16T07:25:53.749Z,18.90
2018-07-16T07:28:22.205Z,18.90
2018-07-16T07:30:50.691Z,19.00
2018-07-16T07:33:19.141Z,19.00
2018-07-16T07:35:47.688Z,19.00
2018-07-16T07:38:16.119Z,19.10
2018-07-16T07:40:44.629Z,19.10
2018-07-16T07:43:13.092Z,19.20
2018-07-16T07:45:41.589Z,19.20
2018-07-16T07:48:10.048Z,19.40
2018-07-16T07:50:38.524Z,19.40
2018-07-16T07:53:10.684Z,19.40
2018-07-16T07:55:39.853Z,19.50
2018-07-16T08:03:04.612Z,19.20
2018-07-16T08:05:33.131Z,19.00
2018-07-16T08:08:01.596Z,19.00
2018-07-16T08:10:30.147Z,19.00
2018-07-16T08:12:58.632Z,19.20
2018-07-16T08:15:27.153Z,19.30
2018-07-16T08:17:55.644Z,19.20
2018-07-16T08:20:24.145Z,19.20
2018-07-16T08:22:52.611Z,19.20
2018-07-16T08:25:21.148Z,19.20
2018-07-16T08:27:49.638Z,19.20
2018-07-16T08:30:18.137Z,19.20
2018-07-16T08:32:46.775Z,19.10
2018-07-16T08:35:15.286Z,19.20
2018-07-16T08:40:11.980Z,19.20
2018-07-16T08:42:40.468Z,19.30
2018-07-16T08:45:09.035Z,19.30
2018-07-16T08:47:37.501Z,19.40
2018-07-16T08:50:06.013Z,19.50
2018-07-16T08:52:34.525Z,19.50
2018-07-16T08:55:03.020Z,19.60
2018-07-16T08:57:31.523Z,19.60
2018-07-16T08:59:59.990Z,19.60
2018-07-16T09:02:28.457Z,19.70
2018-07-16T09:04:56.891Z,19.90
2018-07-16T09:12:21.669Z,20.50
2018-07-16T09:14:50.141Z,20.70
2018-07-16T09:17:18.643Z,20.90
2018-07-16T09:19:47.134Z,20.90
2018-07-16T09:22:15.705Z,20.70
2018-07-16T09:24:44.188Z,20.70
2018-07-16T09:27:12.680Z,20.70
2018-07-16T09:29:41.175Z,21.00
2018-07-16T09:32:09.708Z,21.30
2018-07-16T09:34:38.316Z,21.50
2018-07-16T09:37:06.863Z,21.60
2018-07-16T09:39:35.369Z,21.70
2018-07-16T09:42:03.884Z,21.90
2018-07-16T09:44:32.425Z,22.10
2018-07-16T09:47:00.847Z,22.40
2018-07-16T09:49:29.333Z,22.60
2018-07-16T09:51:57.832Z,22.70
2018-07-16T09:54:26.322Z,22.90
2018-07-16T10:01:56.856Z,23.00
2018-07-16T10:04:25.312Z,23.10
2018-07-16T10:06:53.791Z,22.90
2018-07-16T10:09:22.240Z,22.80
2018-07-16T10:11:50.741Z,23.00
2018-07-16T10:14:19.245Z,23.20
2018-07-16T10:16:47.738Z,23.40
2018-07-16T10:19:16.223Z,23.40
2018-07-16T10:21:44.709Z,23.60
2018-07-16T10:24:13.159Z,23.80
2018-07-16T10:26:41.648Z,24.00
2018-07-16T10:29:10.218Z,24.20
2018-07-16T10:31:38.972Z,23.90
2018-07-16T10:36:35.524Z,24.20
2018-07-16T10:39:04.855Z,24.50
2018-07-16T10:41:33.349Z,24.30
2018-07-16T10:44:01.893Z,24.10
2018-07-16T10:48:58.575Z,24.20
2018-07-16T10:51:27.068Z,24.30
2018-07-16T10:53:55.605Z,24.40
2018-07-16T10:58:52.467Z,24.60
2018-07-16T11:01:20.965Z,24.40
2018-07-16T11:03:49.432Z,24.50
2018-07-16T11:06:22.413Z,24.90
2018-07-16T11:11:19.841Z,24.50
2018-07-16T11:13:48.714Z,24.60
2018-07-16T11:16:17.276Z,24.70
2018-07-16T11:18:46.099Z,24.70
2018-07-16T11:21:14.729Z,24.70
2018-07-16T11:23:43.327Z,24.70
2018-07-16T11:28:39.925Z,24.50
2018-07-16T11:31:08.391Z,24.60
2018-07-16T11:33:36.879Z,25.10
2018-07-16T11:36:05.438Z,25.20
2018-07-16T11:38:34.011Z,25.20
2018-07-16T11:43:30.701Z,25.40
2018-07-16T11:45:59.205Z,25.10
2018-07-16T11:48:27.692Z,25.20
2018-07-16T11:50:56.177Z,25.20
2018-07-16T11:55:52.788Z,25.50
2018-07-16T11:58:21.271Z,25.50
2018-07-16T12:00:49.759Z,25.40
2018-07-16T12:03:18.240Z,25.50
2018-07-16T12:05:46.823Z,25.80
2018-07-16T12:08:15.407Z,25.90
2018-07-16T12:10:43.885Z,26.10
2018-07-16T12:13:12.347Z,25.90
2018-07-16T12:15:40.863Z,25.80
2018-07-16T12:18:09.448Z,26.20
2018-07-16T12:20:37.999Z,26.00
2018-07-16T12:23:06.428Z,25.90
2018-07-16T12:25:34.889Z,25.80
2018-07-16T12:28:03.358Z,26.00
2018-07-16T12:30:31.832Z,26.30
2018-07-16T12:33:00.272Z,25.60
2018-07-16T12:35:28.757Z,25.80
2018-07-16T12:37:57.235Z,25.80
2018-07-16T12:40:25.700Z,25.90
2018-07-16T12:42:54.164Z,26.20
2018-07-16T12:45:22.628Z,26.50
2018-07-16T12:47:51.071Z,26.80
2018-07-16T12:50:19.564Z,26.70
2018-07-16T12:55:16.256Z,26.70
2018-07-16T12:57:44.843Z,26.80
2018-07-16T13:00:13.427Z,26.80
2018-07-16T13:02:42.016Z,26.70
2018-07-16T13:05:10.597Z,26.70
2018-07-16T13:07:39.121Z,26.70
2018-07-16T13:10:07.649Z,26.70
2018-07-16T13:12:36.113Z,26.60
2018-07-16T13:15:04.920Z,26.40
2018-07-16T13:17:33.387Z,26.30
2018-07-16T13:20:01.859Z,26.20
2018-07-16T13:24:58.449Z,26.80
2018-07-16T13:27:26.917Z,27.30
2018-07-16T13:29:55.491Z,27.60
2018-07-16T13:32:23.891Z,27.90
2018-07-16T13:34:52.476Z,27.70
2018-07-16T13:37:20.960Z,27.40
2018-07-16T13:39:49.464Z,27.20
2018-07-16T13:42:18.001Z,27.20
2018-07-16T13:44:46.489Z,27.00
2018-07-16T13:47:14.983Z,27.10
2018-07-16T13:49:43.449Z,27.10
2018-07-16T13:52:11.964Z,27.30
2018-07-16T13:54:40.394Z,27.10
2018-07-16T13:57:09.079Z,27.20
2018-07-16T14:02:06.015Z,27.30
2018-07-16T14:04:34.504Z,27.30
2018-07-16T14:07:02.999Z,27.10
2018-07-16T14:11:59.593Z,26.90
2018-07-16T14:14:28.028Z,27.00
2018-07-16T14:16:56.487Z,27.00
2018-07-16T14:19:24.949Z,27.40
2018-07-16T14:21:53.412Z,27.30
2018-07-16T14:24:21.864Z,27.40
2018-07-16T14:26:50.356Z,27.20
2018-07-16T14:34:15.172Z,27.30
2018-07-16T14:36:43.647Z,27.10
2018-07-16T14:39:12.220Z,27.00
2018-07-16T14:41:40.677Z,26.90
2018-07-16T14:44:09.147Z,26.90
2018-07-16T14:46:37.615Z,26.50
2018-07-16T14:49:06.603Z,26.50
2018-07-16T14:51:35.075Z,26.70
2018-07-16T14:54:03.565Z,26.70
2018-07-16T14:56:32.060Z,27.10
2018-07-16T14:59:00.579Z,27.10
2018-07-16T15:01:29.067Z,27.10
2018-07-16T15:03:57.515Z,27.20
2018-07-16T15:06:26.009Z,27.30
2018-07-16T15:08:54.513Z,27.40
2018-07-16T15:11:23.054Z,27.40
2018-07-16T15:13:51.549Z,27.50
2018-07-16T15:16:20.018Z,27.70
2018-07-16T15:18:48.511Z,27.50
2018-07-16T15:21:17.255Z,27.50
2018-07-16T15:23:45.495Z,27.50
2018-07-16T15:26:13.983Z,27.40
2018-07-16T15:28:42.450Z,27.40
2018-07-16T15:31:10.899Z,27.50
2018-07-16T15:33:39.372Z,27.50
2018-07-16T15:36:07.829Z,27.60
2018-07-16T15:38:36.304Z,27.60
2018-07-16T15:41:04.842Z,27.50
2018-07-16T15:43:33.316Z,27.30
2018-07-16T15:46:01.811Z,27.40
2018-07-16T15:48:30.321Z,27.60
2018-07-16T15:50:58.731Z,27.70
2018-07-16T15:53:27.213Z,27.50
2018-07-16T15:55:55.709Z,27.60
2018-07-16T15:58:24.233Z,27.50
2018-07-16T16:00:52.744Z,27.40
2018-07-16T16:05:49.337Z,27.70
2018-07-16T16:08:17.822Z,27.90
2018-07-16T16:10:46.380Z,27.70
2018-07-16T16:13:14.920Z,27.80
2018-07-16T16:15:43.384Z,27.70
2018-07-16T16:18:12.107Z,27.50
2018-07-16T16:20:40.610Z,27.70
2018-07-16T16:23:09.064Z,28.00
2018-07-16T16:25:37.606Z,28.20
2018-07-16T16:28:06.185Z,28.10
2018-07-16T16:30:34.777Z,28.10
2018-07-16T16:33:03.290Z,28.20
2018-07-16T16:35:31.675Z,28.10
2018-07-16T16:38:00.887Z,28.10
2018-07-16T16:40:29.405Z,28.00
2018-07-16T16:42:57.924Z,28.00
2018-07-16T16:45:26.387Z,27.80
2018-07-16T16:47:54.964Z,27.80
2018-07-16T16:50:23.491Z,27.90
2018-07-16T16:52:51.974Z,27.90
2018-07-16T16:55:20.528Z,27.70
2018-07-16T16:57:48.993Z,28.00
2018-07-16T17:00:17.546Z,27.70
2018-07-16T17:02:46.019Z,27.60
2018-07-16T17:07:42.713Z,27.70
2018-07-16T17:10:11.211Z,27.90
2018-07-16T17:12:39.675Z,27.70
2018-07-16T17:15:08.613Z,27.50
2018-07-16T17:17:37.060Z,27.50
2018-07-16T17:20:05.600Z,27.10
2018-07-16T17:22:34.058Z,27.00
2018-07-16T17:25:02.533Z,27.10
2018-07-16T17:27:30.996Z,27.20
2018-07-16T17:29:59.487Z,27.20
2018-07-16T17:32:27.985Z,27.10
2018-07-16T17:34:56.529Z,26.80
2018-07-16T17:37:24.991Z,26.80
2018-07-16T17:39:53.453Z,26.90
2018-07-16T17:42:21.945Z,27.00
2018-07-16T17:44:50.445Z,27.00
2018-07-16T17:47:18.928Z,27.00
2018-07-16T17:49:47.501Z,26.70
2018-07-16T17:52:15.942Z,26.60
2018-07-16T17:54:44.415Z,26.60
2018-07-16T17:57:13.768Z,26.50
2018-07-16T17:59:42.255Z,26.50
2018-07-16T18:02:10.778Z,26.40
2018-07-16T18:04:39.269Z,26.70
2018-07-16T18:07:07.720Z,26.70
2018-07-16T18:09:36.249Z,26.40
2018-07-16T18:12:04.733Z,26.30
2018-07-16T18:14:33.239Z,26.40
2018-07-16T18:17:01.696Z,26.30
2018-07-16T18:19:30.168Z,26.20
2018-07-16T18:21:58.612Z,26.30
2018-07-16T18:24:27.079Z,26.20
2018-07-16T18:26:55.527Z,25.90
2018-07-16T18:31:52.139Z,25.70
2018-07-16T18:34:20.590Z,25.60
2018-07-16T18:36:49.063Z,25.50
2018-07-16T18:39:17.537Z,25.40
2018-07-16T18:41:46.009Z,25.30
2018-07-16T18:44:14.462Z,25.10
2018-07-16T18:46:43.173Z,25.00
2018-07-16T18:49:11.652Z,25.00
2018-07-16T18:54:08.278Z,24.90
2018-07-16T18:56:36.736Z,24.90
2018-07-16T18:59:05.339Z,24.90
2018-07-16T19:01:33.837Z,24.80
2018-07-16T19:04:02.400Z,24.60
2018-07-16T19:06:30.904Z,24.50
2018-07-16T19:08:59.353Z,24.50
2018-07-16T19:11:27.867Z,24.30
2018-07-16T19:13:56.349Z,24.30
2018-07-16T19:16:24.857Z,24.20
2018-07-16T19:18:53.293Z,24.10
2018-07-16T19:21:21.785Z,24.00
2018-07-16T19:23:50.261Z,24.00
2018-07-16T19:26:18.772Z,23.90
2018-07-16T19:31:15.368Z,23.90
2018-07-16T19:33:43.837Z,23.90
2018-07-16T19:36:12.314Z,23.90
2018-07-16T19:38:40.810Z,23.80
2018-07-16T19:41:09.307Z,23.80
2018-07-16T19:43:37.795Z,23.80
2018-07-16T19:46:06.327Z,23.80
2018-07-16T19:48:34.806Z,23.70
2018-07-16T19:51:03.272Z,23.70
2018-07-16T19:53:31.776Z,23.70
2018-07-16T19:56:00.282Z,23.60
2018-07-16T19:58:28.875Z,23.60
2018-07-16T20:00:57.361Z,23.50
2018-07-16T20:03:25.919Z,23.50
2018-07-16T20:05:54.399Z,23.40
2018-07-16T20:08:22.953Z,23.30
2018-07-16T20:10:51.403Z,23.30
2018-07-16T20:13:19.965Z,23.30
2018-07-16T20:15:48.630Z,23.30
2018-07-16T20:18:16.873Z,23.40
2018-07-16T20:20:54.896Z,23.30
2018-07-16T20:23:23.361Z,23.30
2018-07-16T20:25:53.175Z,23.30
2018-07-16T20:28:21.711Z,23.30
2018-07-16T20:30:50.236Z,23.30
2018-07-16T20:33:18.827Z,23.30
2018-07-16T20:35:47.720Z,23.20
2018-07-16T20:38:16.518Z,23.20
2018-07-16T20:45:41.636Z,23.20
2018-07-16T20:48:10.117Z,23.20
2018-07-16T20:50:38.587Z,23.10
2018-07-16T20:53:07.106Z,23.20
2018-07-16T20:55:35.614Z,23.20
2018-07-16T20:58:04.203Z,23.10
2018-07-16T21:00:33.295Z,23.00
2018-07-16T21:03:01.877Z,22.80
2018-07-16T21:05:30.362Z,22.60
2018-07-16T21:07:58.871Z,22.60
2018-07-16T21:10:27.350Z,22.40
2018-07-16T21:12:55.857Z,22.50
2018-07-16T21:15:24.285Z,22.60
2018-07-16T21:17:52.808Z,22.60
2018-07-16T21:20:21.273Z,22.60
2018-07-16T21:22:49.844Z,22.60
2018-07-16T21:25:18.291Z,22.50
2018-07-16T21:27:46.761Z,22.50
2018-07-16T21:32:43.420Z,22.30
2018-07-16T21:37:40.013Z,22.30
2018-07-16T21:40:08.507Z,22.40
2018-07-16T21:42:36.939Z,22.40
2018-07-16T21:50:01.696Z,22.20
2018-07-16T21:52:30.129Z,22.20
2018-07-16T21:54:58.615Z,22.20
2018-07-16T21:57:27.085Z,22.10
2018-07-16T21:59:55.573Z,22.10
2018-07-16T22:02:24.024Z,22.10
2018-07-16T22:04:52.859Z,22.00
2018-07-16T22:09:49.463Z,21.90
2018-07-16T22:12:17.921Z,21.90
2018-07-16T22:14:46.389Z,21.90
2018-07-16T22:17:14.841Z,21.90
2018-07-16T22:19:43.304Z,21.80
2018-07-16T22:22:11.779Z,21.80
2018-07-16T22:24:40.255Z,21.80
2018-07-16T22:27:08.776Z,21.70
2018-07-16T22:29:37.240Z,21.70
2018-07-16T22:32:05.744Z,21.70
2018-07-16T22:34:34.284Z,21.70
2018-07-16T22:37:02.742Z,21.60
2018-07-16T22:39:31.228Z,21.50
2018-07-16T22:41:59.690Z,21.50
2018-07-16T22:44:28.196Z,21.50
2018-07-16T22:46:56.663Z,21.50
2018-07-16T22:49:25.126Z,21.50
2018-07-16T22:51:53.579Z,21.50
2018-07-16T22:54:22.066Z,21.50
2018-07-16T22:56:50.533Z,21.50
2018-07-16T22:59:19.214Z,21.40
2018-07-16T23:01:47.700Z,21.30
2018-07-16T23:04:16.189Z,21.20
2018-07-16T23:06:44.731Z,21.10
2018-07-16T23:09:13.180Z,21.10
2018-07-16T23:11:41.666Z,21.10
2018-07-16T23:14:10.168Z,21.10
2018-07-16T23:16:38.623Z,21.00
2018-07-16T23:19:07.073Z,21.00
2018-07-16T23:21:35.544Z,20.90
2018-07-16T23:24:04.037Z,20.90
2018-07-16T23:26:32.536Z,20.90
2018-07-16T23:31:29.139Z,20.70
2018-07-16T23:33:57.592Z,20.70
2018-07-16T23:36:26.043Z,20.70
2018-07-16T23:41:22.652Z,20.50
2018-07-16T23:43:51.096Z,20.50
2018-07-16T23:48:47.749Z,20.30
2018-07-16T23:53:44.335Z,20.30
2018-07-16T23:56:12.812Z,20.30
2018-07-16T23:58:41.297Z,20.20
